This is the latest recevied weather packets stored in our database for station/object OM8AGG-10. If no packets are shown the sender has not sent any weather packets the latest 10 day(s).
| Time | Temp. | Humidity | Pressure | Rain* | Wind** | Luminosity | Snow |
|---|---|---|---|---|---|---|---|
| 1777799082 | 19.44° C | 29% | 1024.7 hPa | - | - | - | - |
| 1777797281 | 18.89° C | 31% | 1025 hPa | - | - | - | - |
| 1777796382 | 18.89° C | 28% | 1025 hPa | - | - | - | - |
| 1777793681 | 16.67° C | 37% | 1025.1 hPa | - | - | - | - |
| 1777792781 | 16.11° C | 41% | 1025.1 hPa | - | - | - | - |
| 1777791881 | 14.44° C | 47% | 1025.2 hPa | - | - | - | - |
| 1777790080 | 13.89° C | 50% | 1025 hPa | - | - | - | - |
| 1777789181 | 12.78° C | 55% | 1025.1 hPa | - | - | - | - |
| 1777788280 | 10.56° C | 64% | 1025.1 hPa | - | - | - | - |
| 1777786480 | 7.78° C | 73% | 1025.1 hPa | - | - | - | - |
| 1777785580 | 6.67° C | 79% | 1025.3 hPa | - | - | - | - |
| 1777784680 | 5.56° C | 88% | 1025.4 hPa | - | - | - | - |
| 1777782880 | 2.22° C | 99% | 1025.2 hPa | - | - | - | - |
| 1777781980 | 1.11° C | 98% | 1025.2 hPa | - | - | - | - |
| 1777781080 | 0.56° C | 99% | 1025.2 hPa | - | - | - | - |
| 1777780180 | 0° C | 98% | 1025.2 hPa | - | - | - | - |
| 1777779279 | 0.56° C | 98% | 1025.1 hPa | - | - | - | - |
| 1777778379 | 0.56° C | 96% | 1024.9 hPa | - | - | - | - |
| 1777777479 | 0.56° C | 96% | 1024.9 hPa | - | - | - | - |
| 1777776579 | 0.56° C | 96% | 1024.8 hPa | - | - | - | - |
| 1777775679 | 1.11° C | 94% | 1024.6 hPa | - | - | - | - |
| 1777774779 | 1.67° C | 92% | 1024.5 hPa | - | - | - | - |
| 1777773879 | 1.67° C | 91% | 1024.4 hPa | - | - | - | - |
| 1777772979 | 1.67° C | 93% | 1024.5 hPa | - | - | - | - |
| 1777772079 | 1.11° C | 94% | 1024.5 hPa | - | - | - | - |
* Rain since midnight (hover to see other rain measurements)
** Current wind speed in m/s (hover to see current wind gust speed)